Time;durP1;ratioP1;P1;durP2;ratioP2;P2;SDS_P1;SDS_P2;PMS_P1;PMS_P2;Temp;Humidity;BMP_temperature;BMP_pressure;BME280_temperature;BME280_humidity;BME280_pressure;Samples;Min_cycle;Max_cycle;Signal;HPM_P1;HPM_P2
2022/09/14 00:01:09;;;;;;;2.70;2.50;;;21.10;99.90;;;;;;5041637;28;20227;-72
2022/09/14 00:03:36;;;;;;;3.03;2.75;;;21.00;99.90;;;;;;5039581;28;20234;-73
2022/09/14 00:06:05;;;;;;;3.13;2.83;;;21.00;99.90;;;;;;5039589;28;20238;-73
2022/09/14 00:08:32;;;;;;;3.03;2.83;;;20.90;99.90;;;;;;5040524;28;20203;-73
2022/09/14 00:11:03;;;;;;;4.15;3.75;;;20.90;99.90;;;;;;5037460;28;20230;-73
2022/09/14 00:13:30;;;;;;;3.53;3.10;;;20.90;99.90;;;;;;5039352;28;20238;-72
2022/09/14 00:16:02;;;;;;;2.90;2.70;;;20.90;99.90;;;;;;5039089;28;20223;-73
2022/09/14 00:18:31;;;;;;;3.30;2.45;;;20.90;99.90;;;;;;5036572;28;20220;-72
2022/09/14 00:21:01;;;;;;;3.13;2.92;;;20.90;99.90;;;;;;5033818;28;20223;-73
2022/09/14 00:23:29;;;;;;;4.05;2.97;;;20.90;99.90;;;;;;5041041;28;20219;-73
2022/09/14 00:25:56;;;;;;;2.50;2.30;;;20.90;99.90;;;;;;5042966;28;20731;-72
2022/09/14 00:28:23;;;;;;;2.90;2.70;;;20.80;99.90;;;;;;5028691;28;20196;-73
2022/09/14 00:30:50;;;;;;;4.30;2.92;;;20.80;99.90;;;;;;5040620;28;20223;-73
2022/09/14 00:33:18;;;;;;;3.28;2.97;;;20.80;99.90;;;;;;5045402;28;20229;-73
2022/09/14 00:35:46;;;;;;;3.13;2.83;;;20.80;99.90;;;;;;5041418;28;20230;-73
2022/09/14 00:38:13;;;;;;;2.97;2.78;;;20.80;99.90;;;;;;5035187;28;20461;-72
2022/09/14 00:40:40;;;;;;;5.30;4.80;;;20.80;99.90;;;;;;5034787;28;20230;-73
2022/09/14 00:43:15;;;;;;;3.30;3.10;;;20.70;99.90;;;;;;5042556;28;20230;-73
2022/09/14 00:45:42;;;;;;;2.50;2.40;;;20.70;99.90;;;;;;5042055;28;20256;-73
2022/09/14 00:48:09;;;;;;;2.47;2.33;;;20.70;99.90;;;;;;5036521;28;20196;-73
2022/09/14 00:50:36;;;;;;;2.63;2.42;;;20.70;99.90;;;;;;5038955;28;20227;-73
2022/09/14 00:53:06;;;;;;;4.43;2.75;;;20.70;99.90;;;;;;5038747;28;20227;-73
2022/09/14 00:55:33;;;;;;;3.00;2.80;;;20.70;99.90;;;;;;5043478;28;20644;-73
2022/09/14 00:58:01;;;;;;;2.22;2.13;;;20.60;99.90;;;;;;5036474;28;20720;-73
2022/09/14 01:00:29;;;;;;;2.72;2.50;;;20.60;99.90;;;;;;5039334;28;20287;-73
2022/09/14 01:02:57;;;;;;;2.97;2.78;;;20.60;99.90;;;;;;5036891;28;20222;-73
2022/09/14 01:05:32;;;;;;;2.70;2.50;;;20.60;99.90;;;;;;5044141;28;20223;-73
2022/09/14 01:08:13;;;;;;;2.42;2.33;;;20.60;99.90;;;;;;5042795;28;20257;-73
2022/09/14 01:10:57;;;;;;;2.78;2.58;;;20.60;99.90;;;;;;5040837;28;20219;-73
2022/09/14 01:13:40;;;;;;;2.70;2.50;;;20.60;99.90;;;;;;5041122;28;20242;-73
2022/09/14 01:16:17;;;;;;;2.67;2.38;;;20.50;99.90;;;;;;5037350;28;20232;-73
2022/09/14 01:18:46;;;;;;;2.35;2.15;;;20.50;99.90;;;;;;5040681;28;20222;-73
2022/09/14 01:21:18;;;;;;;2.55;2.35;;;20.50;99.90;;;;;;5037076;28;20227;-73
2022/09/14 01:23:56;;;;;;;2.63;2.42;;;20.50;99.90;;;;;;5040808;28;20229;-73
2022/09/14 01:26:58;;;;;;;2.45;2.33;;;20.40;99.90;;;;;;5042816;28;20223;-73
2022/09/14 01:29:33;;;;;;;2.65;2.45;;;20.40;99.90;;;;;;5038908;28;20259;-73
2022/09/14 01:32:04;;;;;;;2.10;2.00;;;20.40;99.90;;;;;;5040993;28;20209;-73
2022/09/14 01:34:34;;;;;;;2.53;2.33;;;20.40;99.90;;;;;;5035134;28;20232;-72
2022/09/14 01:37:11;;;;;;;2.65;2.45;;;20.40;99.90;;;;;;5034803;28;20196;-73
2022/09/14 01:39:42;;;;;;;3.97;2.63;;;20.40;99.90;;;;;;5041624;28;20567;-73
2022/09/14 01:42:10;;;;;;;3.15;2.50;;;20.40;99.90;;;;;;5039634;28;20192;-73
2022/09/14 01:44:42;;;;;;;2.92;2.72;;;20.40;99.90;;;;;;5041648;28;20230;-72
2022/09/14 01:47:15;;;;;;;3.63;2.63;;;20.30;99.90;;;;;;5035044;28;20786;-73
2022/09/14 01:49:47;;;;;;;3.08;2.88;;;20.20;99.90;;;;;;5043194;28;20223;-73
2022/09/14 01:52:20;;;;;;;2.78;2.47;;;20.20;99.90;;;;;;5041260;28;20968;-73
2022/09/14 01:54:50;;;;;;;2.83;2.63;;;20.20;99.90;;;;;;5038062;28;20278;-73
2022/09/14 01:57:27;;;;;;;2.85;2.65;;;20.10;99.90;;;;;;5032093;28;20216;-72
2022/09/14 02:00:00;;;;;;;2.83;2.50;;;20.10;99.90;;;;;;5034348;28;20246;-72
2022/09/14 02:02:31;;;;;;;3.58;3.22;;;20.00;99.90;;;;;;5038804;28;20246;-73
2022/09/14 02:05:05;;;;;;;2.60;2.40;;;20.00;99.90;;;;;;5039422;28;20223;-72
2022/09/14 02:07:33;;;;;;;2.60;2.40;;;20.00;99.90;;;;;;5038246;28;20275;-72
2022/09/14 02:10:00;;;;;;;2.92;2.72;;;20.00;99.90;;;;;;5040025;28;20219;-73
2022/09/14 02:12:27;;;;;;;2.78;2.58;;;20.00;99.90;;;;;;5041128;28;20354;-73
2022/09/14 02:14:56;;;;;;;2.85;2.63;;;19.90;99.90;;;;;;5039868;28;20234;-72
2022/09/14 02:17:23;;;;;;;3.88;3.50;;;19.80;99.90;;;;;;5040836;28;20216;-73
2022/09/14 02:19:53;;;;;;;3.08;2.88;;;19.70;99.90;;;;;;5039647;28;20269;-72
2022/09/14 02:22:20;;;;;;;3.03;2.83;;;19.60;99.90;;;;;;5039779;28;20200;-73
2022/09/14 02:24:47;;;;;;;3.08;2.80;;;19.60;99.90;;;;;;5039784;28;20273;-73
2022/09/14 02:27:15;;;;;;;3.38;2.75;;;19.60;99.90;;;;;;5041206;28;20202;-72
2022/09/14 02:29:42;;;;;;;3.25;2.95;;;19.60;99.90;;;;;;5038201;28;20277;-72
2022/09/14 02:32:20;;;;;;;3.30;3.00;;;19.60;99.90;;;;;;5034227;28;20211;-72
2022/09/14 02:34:58;;;;;;;2.70;2.50;;;19.50;99.90;;;;;;5038267;28;20226;-72
2022/09/14 02:37:30;;;;;;;2.92;2.72;;;19.50;99.90;;;;;;5040135;28;20242;-72
2022/09/14 02:40:05;;;;;;;3.05;2.75;;;19.60;99.90;;;;;;5041077;28;20224;-73
2022/09/14 02:42:39;;;;;;;2.80;2.60;;;19.50;99.90;;;;;;5039313;28;20222;-73
2022/09/14 02:45:13;;;;;;;2.95;2.70;;;19.50;99.90;;;;;;5039787;28;20302;-72
2022/09/14 02:47:54;;;;;;;2.83;2.63;;;19.40;99.90;;;;;;5037636;28;20616;-73
2022/09/14 02:50:26;;;;;;;2.85;2.42;;;19.40;99.90;;;;;;5038130;28;20219;-73
2022/09/14 02:52:59;;;;;;;2.85;2.65;;;19.40;99.90;;;;;;5039195;28;20227;-73
2022/09/14 02:55:31;;;;;;;3.15;2.75;;;19.50;99.90;;;;;;5038542;28;20251;-73
2022/09/14 02:58:04;;;;;;;2.60;2.42;;;19.50;99.90;;;;;;5037507;28;20223;-73
2022/09/14 03:00:35;;;;;;;2.67;2.40;;;19.60;99.90;;;;;;5039455;28;20215;-73
2022/09/14 03:03:04;;;;;;;2.65;2.45;;;19.60;99.90;;;;;;5040899;28;20220;-73
2022/09/14 03:05:32;;;;;;;3.45;3.15;;;19.60;99.90;;;;;;5040239;28;20246;-74
2022/09/14 03:07:59;;;;;;;2.72;2.53;;;19.60;99.90;;;;;;5036047;28;20376;-72
2022/09/14 03:10:27;;;;;;;3.55;2.80;;;19.50;99.90;;;;;;5038293;28;20231;-73
2022/09/14 03:12:54;;;;;;;3.20;3.00;;;19.40;99.90;;;;;;5038252;28;20223;-72
2022/09/14 03:15:21;;;;;;;3.47;3.00;;;19.30;99.90;;;;;;5038443;28;20216;-72
2022/09/14 03:17:50;;;;;;;3.85;3.55;;;19.30;99.90;;;;;;5038623;28;20215;-72
2022/09/14 03:20:20;;;;;;;3.30;3.00;;;19.30;99.90;;;;;;5040484;28;20225;-72
2022/09/14 03:22:47;;;;;;;2.75;2.58;;;19.30;99.90;;;;;;5039197;28;20216;-73
2022/09/14 03:25:15;;;;;;;2.55;2.35;;;19.30;99.90;;;;;;5037454;28;20258;-74
2022/09/14 03:27:42;;;;;;;2.47;2.38;;;19.40;99.90;;;;;;5039105;28;20191;-72
2022/09/14 03:30:10;;;;;;;2.80;2.60;;;19.40;99.90;;;;;;5037269;28;20299;-74
2022/09/14 03:32:37;;;;;;;2.90;2.70;;;19.50;99.90;;;;;;5032466;28;20224;-73
2022/09/14 03:35:06;;;;;;;3.70;3.40;;;19.50;99.90;;;;;;5039514;28;20234;-73
2022/09/14 03:37:37;;;;;;;3.42;3.00;;;19.50;99.90;;;;;;5035529;28;20195;-73
2022/09/14 03:40:06;;;;;;;3.20;3.00;;;19.40;99.90;;;;;;5040279;28;20253;-73
2022/09/14 03:42:34;;;;;;;3.67;3.40;;;19.40;99.90;;;;;;5037600;28;20219;-73
2022/09/14 03:45:01;;;;;;;3.25;3.03;;;19.40;99.90;;;;;;5037408;28;20224;-72
2022/09/14 03:47:28;;;;;;;4.47;4.18;;;19.40;99.90;;;;;;5040228;28;20200;-73
2022/09/14 03:49:55;;;;;;;5.18;4.78;;;19.40;99.90;;;;;;5036104;28;20227;-72
2022/09/14 03:52:22;;;;;;;3.78;3.47;;;19.30;99.90;;;;;;5040349;28;20204;-72
2022/09/14 03:54:50;;;;;;;4.40;3.30;;;19.30;99.90;;;;;;5036786;28;20267;-72
2022/09/14 03:57:17;;;;;;;2.78;2.58;;;19.30;99.90;;;;;;5037281;28;20192;-72
2022/09/14 03:59:44;;;;;;;3.05;2.85;;;19.30;99.90;;;;;;5035567;28;20239;-76
2022/09/14 04:02:12;;;;;;;3.38;3.17;;;19.40;99.90;;;;;;5036486;28;20215;-73
2022/09/14 04:04:39;;;;;;;4.05;3.03;;;19.40;99.90;;;;;;5038701;28;20219;-73
2022/09/14 04:07:06;;;;;;;2.92;2.72;;;19.50;99.90;;;;;;5041506;28;20203;-73
2022/09/14 04:09:33;;;;;;;2.90;2.70;;;19.50;99.90;;;;;;5039640;28;20223;-73
2022/09/14 04:12:02;;;;;;;3.10;2.80;;;19.50;99.90;;;;;;5039365;28;20640;-73
2022/09/14 04:14:29;;;;;;;2.80;2.60;;;19.60;99.90;;;;;;5034186;28;20987;-73
2022/09/14 04:16:56;;;;;;;2.90;2.70;;;19.50;99.90;;;;;;5035509;28;20196;-72
2022/09/14 04:19:23;;;;;;;2.95;2.75;;;19.50;99.90;;;;;;5039447;28;20215;-73
2022/09/14 04:21:50;;;;;;;4.30;3.60;;;19.40;99.90;;;;;;5043153;28;20208;-73
2022/09/14 04:24:17;;;;;;;4.28;3.88;;;19.40;99.90;;;;;;5035018;28;20223;-73
2022/09/14 04:26:45;;;;;;;3.60;3.30;;;19.40;99.90;;;;;;5046160;28;20615;-73
2022/09/14 04:29:14;;;;;;;3.53;3.33;;;19.30;99.90;;;;;;5037476;28;20191;-73
2022/09/14 04:31:41;;;;;;;3.80;3.50;;;19.30;99.90;;;;;;5038168;28;20564;-73
2022/09/14 04:34:12;;;;;;;3.30;3.10;;;19.20;99.90;;;;;;5038369;28;20222;-74
2022/09/14 04:36:39;;;;;;;4.10;3.80;;;19.30;99.90;;;;;;5040587;28;20249;-73
2022/09/14 04:39:07;;;;;;;3.00;2.80;;;19.30;99.90;;;;;;5038505;28;21416;-73
2022/09/14 04:41:34;;;;;;;3.63;3.42;;;19.20;99.90;;;;;;5038976;28;20254;-73
2022/09/14 04:44:01;;;;;;;3.35;3.15;;;19.20;99.90;;;;;;5037814;28;20219;-74
2022/09/14 04:46:31;;;;;;;3.45;3.20;;;19.30;99.90;;;;;;5039193;28;20238;-72
2022/09/14 04:48:58;;;;;;;3.40;3.20;;;19.30;99.90;;;;;;5035097;28;20196;-73
2022/09/14 04:51:28;;;;;;;4.03;3.72;;;19.30;99.90;;;;;;5040465;28;20306;-72
2022/09/14 04:53:57;;;;;;;4.30;3.90;;;19.30;99.90;;;;;;5041370;28;20425;-72
2022/09/14 04:56:25;;;;;;;4.03;3.63;;;19.30;99.90;;;;;;5037236;28;20465;-72
2022/09/14 04:58:54;;;;;;;3.88;3.58;;;19.30;99.90;;;;;;5038647;28;20215;-73
2022/09/14 05:01:23;;;;;;;4.05;3.75;;;19.20;99.90;;;;;;5036225;28;20223;-72
2022/09/14 05:03:53;;;;;;;3.88;3.58;;;19.20;99.90;;;;;;5038294;28;20211;-72
2022/09/14 05:06:21;;;;;;;3.78;3.47;;;19.20;99.90;;;;;;5037047;28;20220;-72
2022/09/14 05:08:49;;;;;;;4.70;3.92;;;19.20;99.90;;;;;;5040556;28;20192;-72
2022/09/14 05:11:18;;;;;;;3.58;3.28;;;19.20;99.90;;;;;;5035499;28;20216;-75
2022/09/14 05:13:45;;;;;;;3.70;3.42;;;19.30;99.90;;;;;;5034914;28;20227;-74
2022/09/14 05:16:16;;;;;;;3.13;2.92;;;19.30;99.90;;;;;;5026795;28;20226;-74
2022/09/14 05:18:44;;;;;;;3.53;3.22;;;19.30;99.90;;;;;;5034993;28;20736;-73
2022/09/14 05:21:13;;;;;;;3.35;3.08;;;19.40;99.90;;;;;;5036187;28;20220;-73
2022/09/14 05:23:41;;;;;;;3.33;3.03;;;19.40;99.90;;;;;;5035141;28;20222;-73
2022/09/14 05:26:08;;;;;;;4.28;3.78;;;19.40;99.90;;;;;;5039640;28;20227;-73
2022/09/14 05:28:36;;;;;;;3.90;3.50;;;19.40;99.90;;;;;;5034404;28;20207;-73
2022/09/14 05:31:05;;;;;;;3.40;3.20;;;19.30;99.90;;;;;;5031746;28;20227;-73
2022/09/14 05:33:33;;;;;;;3.60;3.30;;;19.40;99.90;;;;;;5033839;28;20250;-73
2022/09/14 05:36:01;;;;;;;4.90;4.50;;;19.40;99.90;;;;;;5038065;28;20227;-73
2022/09/14 05:38:30;;;;;;;4.90;4.50;;;19.30;99.90;;;;;;5036338;28;20593;-73
2022/09/14 05:40:58;;;;;;;5.75;5.28;;;19.20;99.90;;;;;;5033701;28;20250;-73
2022/09/14 05:43:25;;;;;;;5.45;4.80;;;19.20;99.90;;;;;;5039055;28;20219;-73
2022/09/14 05:45:52;;;;;;;4.57;4.18;;;19.20;99.90;;;;;;5038940;28;20270;-72
2022/09/14 05:48:20;;;;;;;4.10;3.80;;;19.20;99.90;;;;;;5032908;28;20200;-73
2022/09/14 05:50:47;;;;;;;4.18;3.85;;;19.20;99.90;;;;;;5035435;28;20222;-73
2022/09/14 05:53:14;;;;;;;5.93;4.03;;;19.20;99.90;;;;;;5036012;28;20287;-73
2022/09/14 05:55:42;;;;;;;3.70;3.40;;;19.20;99.90;;;;;;5030478;28;20223;-73
2022/09/14 05:58:09;;;;;;;3.42;3.17;;;19.20;99.90;;;;;;5031647;28;20731;-72
2022/09/14 06:00:38;;;;;;;3.45;3.25;;;19.30;99.90;;;;;;5033685;28;20228;-73
2022/09/14 06:03:06;;;;;;;3.42;3.13;;;19.30;99.90;;;;;;5035191;28;20218;-73
2022/09/14 06:05:34;;;;;;;2.95;2.75;;;19.40;99.90;;;;;;5037684;28;20393;-74
2022/09/14 06:08:01;;;;;;;3.63;2.83;;;19.50;99.90;;;;;;5032042;28;20661;-73
2022/09/14 06:10:28;;;;;;;3.40;3.10;;;19.60;99.90;;;;;;5030070;28;20243;-73
2022/09/14 06:12:59;;;;;;;3.60;3.30;;;19.60;99.90;;;;;;5028976;28;20219;-73
2022/09/14 06:15:26;;;;;;;3.17;2.88;;;19.70;99.90;;;;;;5029304;28;20220;-73
2022/09/14 06:17:53;;;;;;;3.10;2.90;;;19.70;99.90;;;;;;5030186;28;20258;-73
2022/09/14 06:20:20;;;;;;;3.30;3.03;;;19.70;99.90;;;;;;5031001;28;20227;-73
2022/09/14 06:22:47;;;;;;;3.85;3.45;;;19.80;99.90;;;;;;5035146;28;20736;-73
2022/09/14 06:25:14;;;;;;;3.97;3.67;;;20.00;99.90;;;;;;5032618;28;20239;-73
2022/09/14 06:27:41;;;;;;;4.53;4.10;;;20.20;99.90;;;;;;5029772;28;20210;-72
2022/09/14 06:30:11;;;;;;;4.60;4.30;;;20.30;99.90;;;;;;5028703;28;20220;-72
2022/09/14 06:32:38;;;;;;;5.25;4.18;;;20.10;99.90;;;;;;5026503;28;20239;-72
2022/09/14 06:35:06;;;;;;;4.47;4.18;;;20.00;99.90;;;;;;5026571;28;20309;-72
2022/09/14 06:37:33;;;;;;;4.50;4.20;;;19.80;99.90;;;;;;5026766;28;20328;-73
2022/09/14 06:40:00;;;;;;;4.15;3.35;;;19.80;99.90;;;;;;5028364;28;20281;-73
2022/09/14 06:42:29;;;;;;;4.65;4.20;;;19.70;99.90;;;;;;5026119;28;20574;-72
2022/09/14 06:44:56;;;;;;;4.30;4.00;;;19.70;99.90;;;;;;5027118;28;20907;-73
2022/09/14 06:47:31;;;;;;;4.28;3.85;;;19.70;99.90;;;;;;5022767;28;20204;-73
2022/09/14 06:49:58;;;;;;;3.85;3.55;;;19.80;99.90;;;;;;5024554;28;20754;-73
2022/09/14 06:52:25;;;;;;;3.10;2.90;;;19.80;99.90;;;;;;5026630;28;20208;-73
2022/09/14 06:54:52;;;;;;;3.38;3.08;;;19.80;99.90;;;;;;5029274;28;20251;-75
2022/09/14 06:57:19;;;;;;;4.43;2.95;;;19.90;99.90;;;;;;5021999;28;20690;-73
2022/09/14 06:59:46;;;;;;;3.28;3.08;;;20.10;99.90;;;;;;5020310;28;20285;-73
2022/09/14 07:02:14;;;;;;;3.67;3.38;;;20.10;99.90;;;;;;5018667;28;20658;-72
2022/09/14 07:04:42;;;;;;;4.00;3.63;;;20.30;99.90;;;;;;5019421;28;20228;-73
2022/09/14 07:07:09;;;;;;;3.35;3.10;;;20.40;99.90;;;;;;5026533;28;20200;-73
2022/09/14 07:09:37;;;;;;;5.63;4.20;;;20.40;99.90;;;;;;5023912;28;20232;-73
2022/09/14 07:12:05;;;;;;;4.15;3.75;;;20.50;99.90;;;;;;5024608;28;20196;-72
2022/09/14 07:14:32;;;;;;;3.35;3.15;;;20.50;99.90;;;;;;5023887;28;20852;-72
2022/09/14 07:16:59;;;;;;;5.78;5.28;;;20.50;99.90;;;;;;5022718;28;20204;-73
2022/09/14 07:19:26;;;;;;;3.60;3.40;;;20.60;99.90;;;;;;5022589;28;20390;-73
2022/09/14 07:21:55;;;;;;;3.85;3.55;;;20.50;99.90;;;;;;5027769;28;20210;-73
2022/09/14 07:24:22;;;;;;;3.15;2.95;;;20.60;99.90;;;;;;5031445;28;20220;-75
2022/09/14 07:26:49;;;;;;;3.72;3.42;;;20.60;99.90;;;;;;5025781;28;20212;-73
2022/09/14 07:29:18;;;;;;;3.80;3.55;;;20.70;99.90;;;;;;5026964;28;20191;-73
2022/09/14 07:31:47;;;;;;;4.03;3.72;;;20.80;99.90;;;;;;5024834;28;20264;-74
2022/09/14 07:34:15;;;;;;;3.70;3.40;;;20.70;99.90;;;;;;5026595;28;20234;-73
2022/09/14 07:36:43;;;;;;;3.80;3.50;;;20.70;99.90;;;;;;5022647;28;20212;-73
2022/09/14 07:39:14;;;;;;;4.72;4.32;;;20.70;99.90;;;;;;5028076;28;20220;-74
2022/09/14 07:41:42;;;;;;;4.97;4.53;;;20.70;99.90;;;;;;5032345;28;20696;-74
2022/09/14 07:44:12;;;;;;;7.03;4.20;;;20.60;99.90;;;;;;5032772;28;20668;-74
2022/09/14 07:46:42;;;;;;;4.80;4.30;;;20.60;99.90;;;;;;5030891;28;20199;-74
2022/09/14 07:49:10;;;;;;;6.32;4.82;;;20.60;99.90;;;;;;5033370;28;20191;-73
2022/09/14 07:51:38;;;;;;;5.72;5.28;;;20.50;99.90;;;;;;5026929;28;20196;-72
2022/09/14 07:54:06;;;;;;;7.88;5.70;;;20.40;99.90;;;;;;5030155;28;20223;-73
2022/09/14 07:56:35;;;;;;;6.38;5.78;;;20.30;99.90;;;;;;5023188;28;20666;-74
2022/09/14 07:59:03;;;;;;;9.20;6.03;;;20.20;99.90;;;;;;5031986;28;20196;-73
2022/09/14 08:01:31;;;;;;;6.30;5.22;;;20.10;99.90;;;;;;5030321;28;20230;-73
2022/09/14 08:04:02;;;;;;;8.77;6.47;;;20.20;99.90;;;;;;5026783;28;20215;-73
2022/09/14 08:06:30;;;;;;;7.28;5.10;;;20.20;99.90;;;;;;5031113;28;20230;-73
2022/09/14 08:08:58;;;;;;;5.25;4.75;;;20.20;99.90;;;;;;5026389;28;20207;-73
2022/09/14 08:11:27;;;;;;;5.28;4.50;;;20.20;99.90;;;;;;5028174;28;20231;-73
2022/09/14 08:13:57;;;;;;;5.60;5.10;;;20.10;99.90;;;;;;5027550;28;20234;-74
2022/09/14 08:16:25;;;;;;;4.40;4.00;;;20.20;99.90;;;;;;5022944;28;20230;-73
2022/09/14 08:18:57;;;;;;;5.93;4.78;;;20.20;99.90;;;;;;5024470;28;20266;-72
2022/09/14 08:21:25;;;;;;;5.28;4.88;;;20.20;99.90;;;;;;5029236;28;20223;-73
2022/09/14 08:23:52;;;;;;;5.50;5.00;;;20.30;99.90;;;;;;5027844;28;20285;-72
2022/09/14 08:26:21;;;;;;;4.97;4.60;;;20.50;99.90;;;;;;5025853;28;20219;-73
2022/09/14 08:28:50;;;;;;;5.63;5.13;;;20.60;99.90;;;;;;5024849;28;20804;-72
2022/09/14 08:31:20;;;;;;;4.63;4.25;;;20.80;99.90;;;;;;5027468;28;20697;-72
2022/09/14 08:33:49;;;;;;;4.95;4.55;;;21.00;99.90;;;;;;5023721;28;20258;-73
2022/09/14 08:36:19;;;;;;;4.80;3.95;;;21.10;99.90;;;;;;5027496;28;20219;-73
2022/09/14 08:38:46;;;;;;;3.88;3.58;;;21.10;99.90;;;;;;5023768;28;20689;-73
2022/09/14 08:41:25;;;;;;;4.25;3.85;;;21.20;99.90;;;;;;5025354;28;20231;-73
2022/09/14 08:43:52;;;;;;;4.80;4.40;;;21.20;99.90;;;;;;5020606;28;20224;-73
2022/09/14 08:46:30;;;;;;;4.40;4.00;;;21.20;99.90;;;;;;5031272;28;20220;-74
2022/09/14 08:48:58;;;;;;;6.57;4.28;;;21.20;99.90;;;;;;5031800;28;20199;-73
2022/09/14 08:51:25;;;;;;;4.13;3.63;;;21.20;99.90;;;;;;5031390;28;20223;-73
2022/09/14 08:53:53;;;;;;;4.25;3.85;;;21.20;99.90;;;;;;5030643;28;20224;-75
2022/09/14 08:56:24;;;;;;;4.53;4.13;;;21.30;99.90;;;;;;5034451;28;20211;-74
2022/09/14 08:59:08;;;;;;;4.45;4.05;;;21.30;99.90;;;;;;5029892;28;20200;-73
2022/09/14 09:01:46;;;;;;;3.83;3.53;;;21.40;99.90;;;;;;5029564;28;20207;-73
2022/09/14 09:04:28;;;;;;;5.82;4.65;;;21.60;99.90;;;;;;5025685;28;20274;-73
2022/09/14 09:07:01;;;;;;;4.85;4.35;;;21.70;99.90;;;;;;5028526;28;20234;-74
2022/09/14 09:09:38;;;;;;;4.72;3.63;;;21.70;99.90;;;;;;5030142;28;20357;-73
2022/09/14 09:12:05;;;;;;;4.55;4.00;;;21.80;99.90;;;;;;5029820;28;20206;-74
2022/09/14 09:14:35;;;;;;;5.10;4.03;;;21.80;99.90;;;;;;5022446;28;20254;-72
2022/09/14 09:17:11;;;;;;;3.28;3.08;;;21.90;99.90;;;;;;5023352;28;20200;-72
2022/09/14 09:19:44;;;;;;;4.25;3.65;;;21.90;99.90;;;;;;5027440;28;20224;-71
2022/09/14 09:22:18;;;;;;;7.13;5.30;;;22.10;99.90;;;;;;5022752;28;21019;-71
2022/09/14 09:24:50;;;;;;;4.63;3.95;;;22.10;99.90;;;;;;5020353;28;20752;-72
2022/09/14 09:27:17;;;;;;;5.93;5.38;;;22.20;99.90;;;;;;5030591;28;20218;-71
2022/09/14 09:29:45;;;;;;;4.95;4.45;;;22.20;99.90;;;;;;5032973;28;20228;-72
2022/09/14 09:32:16;;;;;;;4.32;3.92;;;22.10;99.90;;;;;;5021574;28;20217;-69
2022/09/14 09:34:43;;;;;;;6.88;4.95;;;22.00;99.90;;;;;;5021621;28;20231;-72
2022/09/14 09:37:14;;;;;;;6.82;4.78;;;22.10;99.90;;;;;;5026615;28;20204;-71
2022/09/14 09:39:42;;;;;;;4.57;4.18;;;22.00;99.90;;;;;;5024261;28;20254;-71
2022/09/14 09:42:15;;;;;;;5.00;4.50;;;22.10;99.90;;;;;;5024759;28;20207;-72
2022/09/14 09:44:57;;;;;;;4.57;4.18;;;22.20;99.90;;;;;;5027733;28;20254;-71
2022/09/14 09:47:32;;;;;;;6.05;4.68;;;22.30;99.90;;;;;;5028187;28;20196;-72
2022/09/14 09:50:01;;;;;;;4.32;3.92;;;22.30;99.90;;;;;;5025422;28;20219;-72
2022/09/14 09:52:30;;;;;;;5.40;3.70;;;22.40;99.90;;;;;;5030233;28;20200;-73
2022/09/14 09:54:59;;;;;;;3.25;3.00;;;22.70;99.90;;;;;;5029218;28;20231;-72
2022/09/14 09:57:30;;;;;;;6.00;4.43;;;23.00;99.90;;;;;;5025797;28;20196;-72
2022/09/14 10:00:21;;;;;;;4.70;4.30;;;23.30;99.90;;;;;;5030118;28;20314;-72
2022/09/14 10:02:51;;;;;;;5.30;4.80;;;23.30;99.90;;;;;;5023695;28;20897;-72
2022/09/14 10:05:27;;;;;;;4.63;3.92;;;23.40;99.90;;;;;;5024157;28;20248;-72
2022/09/14 10:07:57;;;;;;;4.68;4.22;;;23.30;99.90;;;;;;5025476;28;20191;-71
2022/09/14 10:10:39;;;;;;;4.28;3.97;;;23.30;99.90;;;;;;5027542;28;20207;-72
2022/09/14 10:13:27;;;;;;;4.22;3.78;;;23.30;99.90;;;;;;5024365;28;20223;-71
2022/09/14 10:16:04;;;;;;;4.07;3.70;;;23.30;99.90;;;;;;5026588;28;20342;-72
2022/09/14 10:18:34;;;;;;;4.97;4.57;;;23.30;99.90;;;;;;5024829;28;20839;-71
2022/09/14 10:21:08;;;;;;;6.70;4.18;;;23.30;99.90;;;;;;5022477;28;20721;-71
2022/09/14 10:23:38;;;;;;;6.70;5.53;;;23.20;99.90;;;;;;5022562;28;20226;-71
2022/09/14 10:26:25;;;;;;;4.45;4.05;;;23.00;99.90;;;;;;5018497;28;20251;-73
2022/09/14 10:28:52;;;;;;;5.72;5.03;;;22.90;99.90;;;;;;5018537;28;20803;-72
2022/09/14 10:31:27;;;;;;;6.72;5.22;;;22.70;99.90;;;;;;5022766;28;20223;-72
2022/09/14 10:33:57;;;;;;;6.20;5.65;;;22.60;99.90;;;;;;5020020;28;20230;-72
2022/09/14 10:36:28;;;;;;;6.50;5.32;;;22.60;99.90;;;;;;5022076;28;20227;-71
2022/09/14 10:39:13;;;;;;;8.07;5.50;;;22.50;99.90;;;;;;5019622;28;20846;-71
2022/09/14 10:41:56;;;;;;;5.75;5.00;;;22.50;99.90;;;;;;5024913;28;20757;-72
2022/09/14 10:44:35;;;;;;;4.38;3.97;;;22.60;99.90;;;;;;5020375;28;20223;-73
2022/09/14 10:47:21;;;;;;;3.65;3.35;;;22.70;99.90;;;;;;5019249;28;20287;-71
2022/09/14 10:50:28;;;;;;;7.63;6.15;;;23.20;99.90;;;;;;5023084;28;20340;-71
2022/09/14 10:53:10;;;;;;;10.40;6.50;;;23.50;99.90;;;;;;5022632;28;20706;-71
2022/09/14 10:55:43;;;;;;;5.93;4.82;;;23.60;99.90;;;;;;5020199;28;20221;-71
2022/09/14 10:58:31;;;;;;;9.15;6.03;;;23.70;99.90;;;;;;5019174;28;20218;-71
2022/09/14 11:01:12;;;;;;;8.00;5.93;;;23.80;99.90;;;;;;5019373;28;20515;-72
2022/09/14 11:03:51;;;;;;;7.80;5.25;;;23.80;99.90;;;;;;5023135;28;20709;-72
2022/09/14 11:06:30;;;;;;;6.00;4.10;;;23.90;99.90;;;;;;5015402;28;20284;-73
2022/09/14 11:09:02;;;;;;;9.07;4.90;;;24.30;99.90;;;;;;5020924;28;20285;-74
2022/09/14 11:11:38;;;;;;;5.78;4.82;;;25.00;99.90;;;;;;5019760;28;20351;-73
2022/09/14 11:14:20;;;;;;;6.63;5.18;;;25.50;99.90;;;;;;5022028;28;20281;-72
2022/09/14 11:17:09;;;;;;;6.55;4.63;;;25.70;99.90;;;;;;5019098;28;20269;-72
2022/09/14 11:19:44;;;;;;;7.38;4.55;;;25.80;99.90;;;;;;5022231;28;20282;-72
2022/09/14 11:22:19;;;;;;;8.02;4.53;;;26.20;99.90;;;;;;5015433;28;20223;-72
2022/09/14 11:24:51;;;;;;;6.72;4.38;;;26.50;99.90;;;;;;5019533;28;20629;-72
2022/09/14 11:27:25;;;;;;;4.03;3.53;;;26.70;99.90;;;;;;5019975;28;20207;-72
2022/09/14 11:29:56;;;;;;;6.03;3.90;;;26.80;99.90;;;;;;5022187;28;20218;-72
2022/09/14 11:32:29;;;;;;;5.35;4.10;;;26.80;99.90;;;;;;5018460;28;20567;-72
2022/09/14 11:35:01;;;;;;;4.90;4.05;;;26.80;99.90;;;;;;5025284;28;20219;-74
2022/09/14 11:37:37;;;;;;;4.70;4.00;;;26.70;99.90;;;;;;5021428;28;20729;-74
2022/09/14 11:40:17;;;;;;;8.70;5.18;;;26.60;99.90;;;;;;5020779;28;20242;-74
2022/09/14 11:42:50;;;;;;;7.55;4.60;;;26.20;99.90;;;;;;5020066;28;20381;-74
2022/09/14 11:45:24;;;;;;;5.43;3.90;;;25.60;99.90;;;;;;5019802;28;20220;-74
2022/09/14 11:48:01;;;;;;;5.03;4.53;;;25.20;99.90;;;;;;5023816;28;20321;-74
2022/09/14 11:50:30;;;;;;;6.07;4.22;;;24.80;99.90;;;;;;5020428;28;20219;-74
2022/09/14 11:53:11;;;;;;;6.28;4.60;;;24.50;99.90;;;;;;5024012;28;20212;-75
2022/09/14 11:55:42;;;;;;;7.00;3.75;;;24.30;99.90;;;;;;5021428;28;20571;-73
2022/09/14 11:58:18;;;;;;;8.07;4.63;;;24.10;99.90;;;;;;5023499;28;20200;-75
2022/09/14 12:01:03;;;;;;;5.00;4.50;;;24.00;99.90;;;;;;5027717;28;20219;-71
2022/09/14 12:04:05;;;;;;;4.68;3.80;;;24.00;99.90;;;;;;5030963;28;20257;-71
2022/09/14 12:06:53;;;;;;;3.97;3.13;;;24.20;99.90;;;;;;5020669;28;20226;-72
2022/09/14 12:09:45;;;;;;;5.60;5.10;;;24.50;99.90;;;;;;5027239;28;20834;-73
2022/09/14 12:12:37;;;;;;;6.75;4.90;;;24.70;99.90;;;;;;5023091;28;20207;-72
2022/09/14 12:15:15;;;;;;;8.55;5.13;;;24.70;99.90;;;;;;5022583;28;20231;-72
2022/09/14 12:17:44;;;;;;;8.57;4.40;;;24.70;99.90;;;;;;5024209;28;20203;-71
2022/09/14 12:20:39;;;;;;;3.78;3.40;;;24.90;99.90;;;;;;5029118;28;20215;-72
2022/09/14 12:23:31;;;;;;;4.68;4.07;;;25.20;99.90;;;;;;5016918;28;20245;-74
2022/09/14 12:26:37;;;;;;;3.00;2.70;;;25.50;99.90;;;;;;5009844;28;20215;-72
2022/09/14 12:29:31;;;;;;;3.38;2.50;;;25.60;99.90;;;;;;5026946;28;20199;-71
2022/09/14 12:32:23;;;;;;;2.30;2.10;;;25.90;99.90;;;;;;5023013;28;20215;-72
2022/09/14 12:35:33;;;;;;;2.60;2.40;;;26.00;99.90;;;;;;5029877;28;20227;-72
2022/09/14 12:38:40;;;;;;;2.35;2.15;;;26.30;99.90;;;;;;5032616;28;20206;-71
2022/09/14 12:41:40;;;;;;;4.25;2.40;;;26.70;99.90;;;;;;5030549;28;20231;-71
2022/09/14 12:44:43;;;;;;;2.47;2.17;;;27.10;99.90;;;;;;5022330;28;20224;-71
2022/09/14 12:47:38;;;;;;;3.47;2.20;;;27.30;99.90;;;;;;5026413;28;20216;-74
2022/09/14 12:50:18;;;;;;;3.40;2.08;;;27.40;99.90;;;;;;5029700;28;20234;-72
2022/09/14 12:52:56;;;;;;;3.10;2.30;;;27.30;99.90;;;;;;5026998;28;20223;-72
2022/09/14 12:55:51;;;;;;;1.73;1.60;;;27.20;99.90;;;;;;5025896;28;20219;-72
2022/09/14 12:58:40;;;;;;;3.45;1.90;;;27.00;99.90;;;;;;5022428;28;20577;-71
2022/09/14 13:01:19;;;;;;;2.70;1.60;;;26.80;99.90;;;;;;5024676;28;20440;-73
2022/09/14 13:03:51;;;;;;;2.65;1.75;;;26.70;99.90;;;;;;5027117;28;20225;-71
2022/09/14 13:06:20;;;;;;;3.08;2.20;;;26.60;99.90;;;;;;5027366;28;20219;-71
2022/09/14 13:08:49;;;;;;;2.03;1.80;;;26.50;99.90;;;;;;5024819;28;20195;-71
2022/09/14 13:11:24;;;;;;;3.40;1.90;;;26.40;99.90;;;;;;5027285;28;20246;-70
2022/09/14 13:13:52;;;;;;;3.00;2.10;;;26.30;99.90;;;;;;5028144;28;20223;-73